Time;durP1;ratioP1;P1;durP2;ratioP2;P2;SDS_P1;SDS_P2;PMS_P1;PMS_P2;Temp;Humidity;BMP_temperature;BMP_pressure;BME280_temperature;BME280_humidity;BME280_pressure;Samples;Min_cycle;Max_cycle;Signal;HPM_P1;HPM_P2
2021/09/30 00:00:08;;;;;;;8.90;5.30;;;14.60;99.90;;;;;;5067331;28;20314;-80
2021/09/30 00:02:35;;;;;;;7.22;5.07;;;14.70;99.90;;;;;;5049254;28;20238;-80
2021/09/30 00:05:01;;;;;;;9.63;5.15;;;14.70;99.90;;;;;;5067275;28;20200;-81
2021/09/30 00:07:27;;;;;;;7.90;4.43;;;14.70;99.90;;;;;;5075652;28;20178;-81
2021/09/30 00:09:53;;;;;;;5.70;4.18;;;14.70;99.90;;;;;;5087225;28;20191;-80
2021/09/30 00:12:32;;;;;;;7.95;4.60;;;14.70;99.90;;;;;;5087576;28;20156;-81
2021/09/30 00:15:07;;;;;;;5.95;3.92;;;14.70;99.90;;;;;;5087324;28;20186;-81
2021/09/30 00:41:47;;;;;;;10.52;6.57;;;14.40;99.90;;;;;;5069276;28;20155;-80
2021/09/30 00:47:31;;;;;;;9.38;6.72;;;14.30;99.90;;;;;;5067048;28;20184;-80
2021/09/30 01:22:05;;;;;;;10.18;6.88;;;14.30;99.90;;;;;;5066908;28;20167;-80
2021/09/30 01:25:29;;;;;;;10.85;6.63;;;14.40;99.90;;;;;;5066616;28;20673;-80
2021/09/30 02:20:10;;;;;;;5.90;3.38;;;13.90;99.90;;;;;;5069342;28;20195;-80
2021/09/30 02:28:14;;;;;;;2.78;2.03;;;13.60;99.90;;;;;;5069457;28;20235;-80
2021/09/30 02:58:33;;;;;;;2.05;1.38;;;13.00;99.90;;;;;;5048184;28;20653;-80
2021/09/30 03:01:07;;;;;;;1.48;1.00;;;13.00;99.90;;;;;;5068911;28;20192;-80
2021/09/30 03:03:36;;;;;;;1.45;0.98;;;12.90;99.90;;;;;;5069018;28;20198;-80
2021/09/30 03:06:05;;;;;;;1.00;0.90;;;12.90;99.90;;;;;;5068681;28;20195;-79
2021/09/30 03:08:36;;;;;;;1.00;0.70;;;12.90;99.90;;;;;;5068920;28;20149;-79
2021/09/30 03:11:03;;;;;;;1.33;1.00;;;12.80;99.90;;;;;;5068768;28;20193;-78
2021/09/30 03:13:32;;;;;;;2.20;0.70;;;12.80;99.90;;;;;;5069239;28;20169;-77
2021/09/30 03:16:04;;;;;;;1.63;0.70;;;12.80;99.90;;;;;;5068910;28;20290;-76
2021/09/30 03:23:34;;;;;;;2.03;0.85;;;12.60;99.90;;;;;;5068632;28;20169;-76
2021/09/30 03:26:01;;;;;;;0.52;0.52;;;12.70;99.90;;;;;;5068137;28;20180;-76
2021/09/30 03:28:29;;;;;;;1.67;1.23;;;12.70;99.90;;;;;;5049843;28;20265;-76
2021/09/30 03:30:56;;;;;;;0.75;0.75;;;12.70;99.90;;;;;;5068063;28;20157;-77
2021/09/30 03:33:25;;;;;;;1.75;0.60;;;12.70;99.90;;;;;;5068122;28;20228;-76
2021/09/30 03:35:51;;;;;;;2.38;1.02;;;12.70;99.90;;;;;;5067927;28;20176;-75
2021/09/30 03:38:20;;;;;;;2.38;1.00;;;12.70;99.90;;;;;;5067759;28;20200;-75
2021/09/30 03:40:47;;;;;;;3.67;1.63;;;12.70;99.90;;;;;;5068107;28;20171;-77
2021/09/30 03:43:13;;;;;;;2.50;1.05;;;12.60;99.90;;;;;;5067710;28;20169;-77
2021/09/30 03:45:40;;;;;;;1.10;0.85;;;12.50;99.90;;;;;;5067758;28;20189;-77
2021/09/30 03:48:07;;;;;;;0.52;0.32;;;12.40;99.90;;;;;;5067968;28;20185;-75
2021/09/30 03:50:51;;;;;;;0.70;0.68;;;12.50;99.90;;;;;;5067672;28;20175;-76
2021/09/30 03:53:24;;;;;;;2.75;0.52;;;12.50;99.90;;;;;;5027948;28;20173;-78
2021/09/30 03:56:28;;;;;;;0.90;0.70;;;12.40;99.90;;;;;;5028107;28;20219;-78
2021/09/30 03:59:19;;;;;;;1.05;0.73;;;12.50;99.90;;;;;;5028192;28;20177;-77
2021/09/30 04:02:01;;;;;;;1.05;0.70;;;12.50;99.90;;;;;;5027050;28;20186;-76
2021/09/30 04:04:33;;;;;;;1.13;0.60;;;12.50;99.90;;;;;;5027864;28;20562;-77
2021/09/30 04:07:03;;;;;;;1.63;0.93;;;12.50;99.90;;;;;;5027563;28;20213;-77
2021/09/30 04:09:30;;;;;;;0.60;0.50;;;12.60;99.90;;;;;;5027590;28;20158;-77
2021/09/30 04:12:01;;;;;;;1.15;0.88;;;12.50;99.90;;;;;;5027605;28;20154;-76
2021/09/30 04:14:28;;;;;;;1.45;0.52;;;12.40;99.90;;;;;;5027616;28;20227;-76
2021/09/30 04:16:55;;;;;;;0.93;0.50;;;12.50;99.90;;;;;;5027362;28;20292;-77
2021/09/30 04:19:22;;;;;;;1.30;0.65;;;12.50;99.90;;;;;;5027476;28;20172;-76
2021/09/30 04:21:51;;;;;;;0.70;0.70;;;12.40;99.90;;;;;;5027285;28;20606;-76
2021/09/30 04:24:17;;;;;;;0.65;0.60;;;12.30;99.90;;;;;;5027340;28;20190;-77
2021/09/30 04:26:44;;;;;;;0.43;0.38;;;12.30;99.90;;;;;;5027385;28;20219;-76
2021/09/30 04:29:10;;;;;;;0.52;0.52;;;12.20;99.90;;;;;;5027334;28;20177;-77
2021/09/30 04:31:36;;;;;;;2.25;0.60;;;12.30;99.90;;;;;;5027386;28;20158;-77
2021/09/30 04:34:03;;;;;;;1.95;0.63;;;12.30;99.90;;;;;;5027299;28;20191;-77
2021/09/30 04:36:29;;;;;;;1.30;0.47;;;12.20;99.90;;;;;;5027164;28;20281;-77
2021/09/30 04:38:55;;;;;;;0.68;0.57;;;12.20;99.90;;;;;;5026913;28;20166;-77
2021/09/30 04:41:21;;;;;;;0.80;0.40;;;12.20;99.90;;;;;;5025613;28;20180;-77
2021/09/30 04:43:48;;;;;;;0.90;0.50;;;12.10;99.90;;;;;;5026951;28;20218;-77
2021/09/30 04:46:15;;;;;;;0.63;0.63;;;12.10;99.90;;;;;;5026970;28;20186;-77
2021/09/30 04:48:42;;;;;;;1.08;0.90;;;12.10;99.90;;;;;;5042021;28;20241;-77
2021/09/30 04:51:09;;;;;;;1.15;0.80;;;12.10;99.90;;;;;;5032044;28;20181;-77
2021/09/30 04:53:36;;;;;;;0.40;0.40;;;12.00;99.90;;;;;;5066545;28;20161;-77
2021/09/30 04:56:03;;;;;;;1.00;0.50;;;12.00;99.90;;;;;;5066397;28;20161;-77
2021/09/30 04:58:29;;;;;;;1.23;0.80;;;12.00;99.90;;;;;;5048261;28;20207;-77
2021/09/30 05:00:55;;;;;;;2.78;0.63;;;12.00;99.90;;;;;;5066551;28;20169;-77
2021/09/30 05:03:22;;;;;;;1.38;0.73;;;11.90;99.90;;;;;;5048719;28;20179;-76
2021/09/30 05:05:47;;;;;;;1.50;0.50;;;11.90;99.90;;;;;;5066409;28;20196;-76
2021/09/30 05:08:14;;;;;;;0.90;0.70;;;11.90;99.90;;;;;;5066093;28;20192;-76
2021/09/30 05:10:41;;;;;;;0.60;0.60;;;11.90;99.90;;;;;;5066057;28;20255;-77
2021/09/30 05:13:16;;;;;;;0.60;0.60;;;11.80;99.90;;;;;;5069102;28;20216;-76
2021/09/30 05:15:42;;;;;;;3.05;1.20;;;11.80;99.90;;;;;;5069984;28;20156;-75
2021/09/30 05:18:08;;;;;;;0.57;0.57;;;11.80;99.90;;;;;;5069803;28;20215;-76
2021/09/30 05:20:34;;;;;;;1.15;0.80;;;11.90;99.90;;;;;;5069817;28;20168;-78
2021/09/30 05:23:00;;;;;;;0.95;0.82;;;12.00;99.90;;;;;;5069966;28;20275;-78
2021/09/30 05:25:26;;;;;;;0.52;0.43;;;12.00;99.90;;;;;;5070055;28;20192;-77
2021/09/30 05:27:54;;;;;;;1.55;1.02;;;12.00;99.90;;;;;;5068678;28;20189;-77
2021/09/30 05:30:22;;;;;;;0.60;0.50;;;12.10;99.90;;;;;;5069887;28;20172;-76
2021/09/30 05:32:49;;;;;;;1.95;0.85;;;12.20;99.90;;;;;;5069699;28;20164;-76
2021/09/30 05:35:16;;;;;;;1.63;1.20;;;12.30;99.90;;;;;;5069508;28;20218;-76
2021/09/30 05:37:43;;;;;;;2.13;0.43;;;12.20;99.90;;;;;;5069539;28;20204;-76
2021/09/30 05:40:14;;;;;;;0.68;0.50;;;12.40;99.90;;;;;;5069716;28;20214;-76
2021/09/30 05:42:42;;;;;;;0.73;0.55;;;12.40;99.90;;;;;;5070453;28;20157;-76
2021/09/30 05:45:14;;;;;;;2.08;0.80;;;12.40;99.90;;;;;;5070638;28;20216;-77
2021/09/30 05:47:41;;;;;;;1.35;0.65;;;12.60;99.90;;;;;;5070435;28;20272;-77
2021/09/30 05:50:07;;;;;;;0.50;0.50;;;12.70;99.90;;;;;;5052202;28;20180;-78
2021/09/30 05:52:35;;;;;;;0.40;0.40;;;12.70;99.90;;;;;;5069583;28;20295;-76
2021/09/30 05:55:03;;;;;;;1.42;0.47;;;12.70;99.90;;;;;;5069775;28;20176;-75
2021/09/30 05:57:33;;;;;;;0.38;0.30;;;12.80;99.90;;;;;;5069492;28;20268;-76
2021/09/30 06:00:13;;;;;;;0.50;0.40;;;12.90;99.90;;;;;;5069546;28;20168;-77
2021/09/30 06:11:18;;;;;;;0.55;0.35;;;13.20;99.90;;;;;;5008467;28;20197;-76
2021/09/30 06:16:25;;;;;;;0.40;0.40;;;13.20;99.90;;;;;;5008306;28;20242;-77
2021/09/30 06:18:51;;;;;;;1.02;0.50;;;13.20;99.90;;;;;;5008388;28;20262;-78
2021/09/30 06:21:17;;;;;;;3.15;0.43;;;13.30;99.90;;;;;;5008158;28;20247;-77
2021/09/30 06:23:43;;;;;;;1.75;0.50;;;13.30;99.90;;;;;;5006944;28;20175;-77
2021/09/30 06:26:09;;;;;;;0.80;0.40;;;13.40;99.90;;;;;;4991892;28;20207;-78
2021/09/30 06:28:35;;;;;;;0.95;0.43;;;13.50;99.90;;;;;;5008224;28;20187;-76
2021/09/30 06:31:01;;;;;;;0.77;0.40;;;13.50;99.90;;;;;;5008169;28;20155;-78
2021/09/30 06:33:27;;;;;;;0.50;0.40;;;13.50;99.90;;;;;;5007663;28;20192;-76
2021/09/30 06:35:53;;;;;;;1.85;0.30;;;13.70;99.90;;;;;;5008021;28;20222;-78
2021/09/30 06:38:19;;;;;;;0.30;0.30;;;13.80;99.90;;;;;;5007157;28;20201;-77
2021/09/30 06:40:45;;;;;;;1.58;0.60;;;13.90;99.90;;;;;;5026446;28;20236;-78
2021/09/30 06:43:12;;;;;;;0.75;0.40;;;14.00;99.90;;;;;;5067034;28;20298;-77
2021/09/30 06:45:38;;;;;;;0.85;0.43;;;14.00;99.90;;;;;;5068651;28;20181;-76
2021/09/30 06:48:04;;;;;;;3.58;0.28;;;14.10;99.90;;;;;;5068415;28;20157;-78
2021/09/30 06:50:31;;;;;;;0.65;0.43;;;14.20;99.90;;;;;;5068417;28;20196;-77
2021/09/30 06:52:57;;;;;;;0.50;0.50;;;14.30;99.90;;;;;;5068274;28;20251;-77
2021/09/30 06:55:23;;;;;;;0.20;0.20;;;14.30;99.90;;;;;;5050228;28;20173;-79
2021/09/30 06:57:50;;;;;;;0.60;0.60;;;14.50;99.90;;;;;;5068272;28;20180;-78
2021/09/30 07:00:17;;;;;;;2.35;0.30;;;14.50;99.90;;;;;;5068138;28;20193;-79
2021/09/30 07:02:43;;;;;;;0.20;0.20;;;14.50;99.90;;;;;;5067929;28;20168;-78
2021/09/30 07:05:12;;;;;;;0.43;0.30;;;14.40;99.90;;;;;;5067879;28;20198;-78
2021/09/30 07:07:39;;;;;;;0.65;0.35;;;14.40;99.90;;;;;;5067346;28;20205;-77
2021/09/30 07:10:08;;;;;;;0.40;0.40;;;14.40;99.90;;;;;;5067730;28;20212;-80
2021/09/30 07:12:34;;;;;;;0.20;0.20;;;14.50;99.90;;;;;;5068050;28;20346;-79
2021/09/30 07:15:00;;;;;;;0.80;0.60;;;14.40;99.90;;;;;;5049845;28;20181;-79
2021/09/30 07:17:28;;;;;;;0.65;0.40;;;14.50;99.90;;;;;;5050216;28;20171;-79
2021/09/30 07:19:54;;;;;;;1.10;0.35;;;14.60;99.90;;;;;;5049330;28;20196;-79
2021/09/30 07:22:20;;;;;;;0.40;0.40;;;14.70;99.90;;;;;;5067759;28;20176;-78
2021/09/30 07:24:47;;;;;;;0.80;0.80;;;14.60;99.90;;;;;;5067493;28;20181;-78
2021/09/30 07:27:14;;;;;;;2.83;0.50;;;14.80;99.90;;;;;;5067947;28;20161;-78
2021/09/30 07:29:40;;;;;;;0.60;0.30;;;14.80;99.90;;;;;;5067644;28;20192;-78
2021/09/30 07:32:07;;;;;;;0.45;0.30;;;14.80;99.90;;;;;;5067748;28;20172;-78
2021/09/30 07:34:33;;;;;;;2.85;0.35;;;14.80;99.90;;;;;;5067353;28;20195;-76
2021/09/30 07:37:00;;;;;;;0.15;0.15;;;14.80;99.90;;;;;;5067800;28;20222;-77
2021/09/30 07:39:26;;;;;;;1.17;0.35;;;14.90;99.90;;;;;;5066858;28;20189;-78
2021/09/30 07:41:52;;;;;;;0.68;0.38;;;15.00;99.90;;;;;;5066884;28;20232;-76
2021/09/30 07:44:19;;;;;;;0.22;0.20;;;15.20;99.90;;;;;;5067092;28;20184;-78
2021/09/30 07:46:46;;;;;;;2.00;0.32;;;15.40;99.90;;;;;;5067397;28;20167;-77
2021/09/30 07:49:13;;;;;;;0.35;0.30;;;15.80;99.90;;;;;;5067204;28;20188;-74
2021/09/30 07:51:40;;;;;;;0.50;0.47;;;15.90;99.90;;;;;;5066960;28;20238;-74
2021/09/30 07:54:08;;;;;;;1.90;0.35;;;15.90;99.90;;;;;;5067107;28;20239;-74
2021/09/30 07:56:34;;;;;;;0.45;0.45;;;16.10;99.90;;;;;;5067160;28;20266;-75
2021/09/30 07:59:00;;;;;;;1.08;0.40;;;16.30;99.90;;;;;;5066947;28;20188;-75
2021/09/30 08:01:26;;;;;;;0.50;0.30;;;16.60;99.90;;;;;;5048854;28;20183;-74
2021/09/30 08:03:52;;;;;;;1.02;0.52;;;16.50;99.90;;;;;;5048868;28;20180;-74
2021/09/30 08:06:19;;;;;;;2.33;0.55;;;16.60;99.90;;;;;;5048679;28;20203;-75
2021/09/30 08:08:46;;;;;;;0.30;0.30;;;16.50;99.90;;;;;;5066278;28;20571;-75
2021/09/30 08:11:12;;;;;;;0.98;0.22;;;16.60;99.90;;;;;;5050855;28;20180;-75
2021/09/30 08:13:39;;;;;;;2.45;0.40;;;16.40;99.90;;;;;;5066824;28;20268;-75
2021/09/30 08:16:06;;;;;;;3.53;0.38;;;16.50;99.90;;;;;;5066706;28;20168;-73
2021/09/30 08:18:32;;;;;;;0.30;0.20;;;16.50;99.90;;;;;;5066846;28;20188;-76
2021/09/30 08:20:58;;;;;;;0.77;0.28;;;16.50;99.90;;;;;;5067042;28;20176;-76
2021/09/30 08:23:24;;;;;;;0.63;0.55;;;16.50;99.90;;;;;;5066677;28;20157;-76
2021/09/30 08:25:51;;;;;;;0.10;0.10;;;16.60;99.90;;;;;;5067095;28;20196;-76
2021/09/30 08:28:20;;;;;;;1.75;0.15;;;16.50;99.90;;;;;;5066842;28;20188;-76
2021/09/30 08:30:50;;;;;;;0.15;0.15;;;16.50;99.90;;;;;;5066672;28;20153;-76
2021/09/30 08:33:22;;;;;;;0.20;0.20;;;16.40;99.90;;;;;;5048646;28;20287;-76
2021/09/30 08:35:49;;;;;;;0.28;0.28;;;16.80;99.90;;;;;;5066720;28;20161;-76
2021/09/30 08:38:15;;;;;;;3.50;0.50;;;17.00;99.90;;;;;;5066608;28;20290;-75
2021/09/30 08:40:41;;;;;;;1.05;0.40;;;17.50;99.90;;;;;;5048738;28;20165;-75
2021/09/30 08:43:07;;;;;;;0.32;0.10;;;18.40;99.90;;;;;;5066712;28;20161;-74
2021/09/30 08:45:34;;;;;;;0.13;0.13;;;18.20;99.90;;;;;;5066666;28;20704;-75
2021/09/30 08:48:05;;;;;;;1.15;0.50;;;17.70;99.90;;;;;;5051535;28;20164;-75
2021/09/30 08:50:38;;;;;;;0.98;0.40;;;17.50;99.90;;;;;;5070811;28;20247;-75
2021/09/30 08:53:05;;;;;;;0.52;0.25;;;17.90;99.90;;;;;;5070317;28;20235;-75
2021/09/30 08:55:32;;;;;;;0.32;0.20;;;18.60;99.90;;;;;;5070644;28;20494;-75
2021/09/30 08:58:02;;;;;;;0.20;0.20;;;19.00;99.90;;;;;;5070431;28;20243;-75
2021/09/30 09:00:31;;;;;;;1.88;0.65;;;19.30;99.90;;;;;;5070441;28;20512;-74
2021/09/30 09:02:57;;;;;;;0.73;0.20;;;19.20;99.90;;;;;;5070474;28;20247;-75
2021/09/30 09:05:25;;;;;;;0.35;0.35;;;18.50;99.90;;;;;;5070330;28;20207;-75
2021/09/30 09:07:53;;;;;;;0.35;0.35;;;18.40;99.90;;;;;;5070416;28;20160;-74
2021/09/30 09:10:21;;;;;;;0.98;0.30;;;18.20;99.90;;;;;;5070232;28;20159;-75
2021/09/30 09:13:05;;;;;;;0.40;0.10;;;18.40;99.90;;;;;;5070435;28;20237;-75
2021/09/30 09:15:50;;;;;;;1.23;0.30;;;19.00;99.90;;;;;;5070400;28;20293;-75
2021/09/30 09:18:19;;;;;;;2.53;0.43;;;20.40;99.90;;;;;;5070105;28;20215;-74
2021/09/30 09:21:22;;;;;;;0.20;0.20;;;20.10;99.90;;;;;;5070185;28;20171;-74
2021/09/30 09:23:51;;;;;;;1.25;0.35;;;20.00;99.90;;;;;;5070306;28;20270;-75
2021/09/30 09:26:20;;;;;;;1.13;0.25;;;20.00;99.90;;;;;;5068716;28;20208;-75
2021/09/30 09:29:27;;;;;;;0.40;0.17;;;20.60;99.90;;;;;;5051997;28;20294;-74
2021/09/30 09:31:53;;;;;;;1.13;0.20;;;20.60;99.90;;;;;;4987053;28;20174;-74
2021/09/30 09:34:32;;;;;;;0.57;0.30;;;20.60;99.90;;;;;;4988619;28;20514;-75
2021/09/30 09:39:57;;;;;;;1.38;0.20;;;19.10;99.90;;;;;;4987295;28;20194;-74
2021/09/30 09:42:30;;;;;;;2.08;0.70;;;19.50;99.90;;;;;;4988438;28;20183;-74
2021/09/30 09:44:58;;;;;;;1.25;0.30;;;20.60;99.90;;;;;;4988371;28;20217;-74
2021/09/30 09:47:34;;;;;;;0.70;0.30;;;20.40;99.90;;;;;;4988383;28;20186;-74
2021/09/30 09:50:32;;;;;;;1.08;0.20;;;21.30;99.30;;;;;;4988368;28;20266;-74
2021/09/30 09:53:02;;;;;;;3.08;1.10;;;20.90;97.50;;;;;;4930042;29;20220;-74
2021/09/30 09:55:30;;;;;;;2.38;0.57;;;20.90;99.90;;;;;;4930452;29;20216;-75
2021/09/30 09:58:03;;;;;;;0.10;0.10;;;21.00;99.90;;;;;;4930654;29;20192;-74
2021/09/30 10:00:50;;;;;;;0.10;0.10;;;20.40;99.50;;;;;;4918498;29;20215;-74
2021/09/30 10:03:19;;;;;;;0.17;0.17;;;20.20;99.90;;;;;;4934201;29;20233;-74
2021/09/30 10:05:46;;;;;;;1.73;0.25;;;20.40;98.50;;;;;;4949546;29;20222;-74
2021/09/30 10:08:17;;;;;;;0.10;0.10;;;20.00;99.90;;;;;;4949467;29;20168;-74
2021/09/30 10:10:46;;;;;;;0.30;0.20;;;20.40;99.90;;;;;;4949665;29;20160;-74
2021/09/30 10:13:13;;;;;;;0.10;0.10;;;20.30;99.30;;;;;;4949546;29;20677;-74
2021/09/30 10:15:39;;;;;;;0.68;0.20;;;19.10;99.00;;;;;;4949223;29;20204;-74
2021/09/30 10:18:08;;;;;;;0.20;0.10;;;19.10;99.90;;;;;;4949346;29;20199;-72
2021/09/30 10:20:36;;;;;;;0.63;0.20;;;19.60;99.90;;;;;;4949289;29;20666;-75
2021/09/30 10:23:05;;;;;;;0.20;0.20;;;20.20;99.90;;;;;;4949036;29;20250;-74
2021/09/30 10:25:33;;;;;;;0.10;0.10;;;20.10;99.90;;;;;;4952134;29;20223;-75
2021/09/30 10:28:01;;;;;;;0.80;0.20;;;20.10;99.90;;;;;;4996439;28;20187;-74
2021/09/30 10:30:37;;;;;;;0.20;0.10;;;20.20;99.90;;;;;;5068771;28;20161;-75
2021/09/30 10:33:14;;;;;;;0.22;0.20;;;20.60;99.00;;;;;;5050643;28;20191;-74
2021/09/30 10:35:45;;;;;;;0.95;0.30;;;20.30;99.90;;;;;;5048768;28;20203;-74
2021/09/30 10:38:28;;;;;;;0.68;0.10;;;20.50;99.90;;;;;;5048592;28;20188;-74
2021/09/30 10:41:13;;;;;;;0.52;0.20;;;21.10;96.70;;;;;;5048807;28;20164;-74
2021/09/30 10:43:44;;;;;;;0.50;0.10;;;20.40;98.10;;;;;;5048564;28;20167;-74
2021/09/30 10:46:22;;;;;;;0.55;0.25;;;20.00;99.90;;;;;;5048454;28;20201;-74
2021/09/30 10:48:51;;;;;;;0.10;0.10;;;19.70;97.90;;;;;;5048514;28;20157;-74
2021/09/30 10:51:18;;;;;;;0.25;0.20;;;19.50;98.60;;;;;;5048213;28;20219;-75
2021/09/30 10:53:46;;;;;;;0.20;0.20;;;19.80;97.90;;;;;;5048326;28;20207;-74
2021/09/30 10:56:27;;;;;;;1.17;0.20;;;19.80;98.30;;;;;;5048211;28;20278;-74
2021/09/30 10:59:02;;;;;;;0.95;0.25;;;20.20;98.50;;;;;;5048362;28;20591;-74
2021/09/30 11:01:28;;;;;;;0.32;0.20;;;20.50;97.80;;;;;;5084565;28;20171;-74
2021/09/30 11:04:01;;;;;;;2.65;0.50;;;21.00;99.90;;;;;;5070066;28;20193;-74
2021/09/30 11:06:28;;;;;;;0.20;0.20;;;21.90;97.90;;;;;;5069849;28;20203;-74
2021/09/30 11:09:17;;;;;;;0.10;0.10;;;21.50;97.50;;;;;;5088017;28;20159;-74
2021/09/30 11:11:45;;;;;;;0.25;0.20;;;20.00;97.80;;;;;;5088005;28;20266;-74
2021/09/30 11:14:12;;;;;;;0.10;0.10;;;20.60;97.70;;;;;;5088087;28;20215;-74
2021/09/30 11:16:41;;;;;;;1.55;0.20;;;20.50;99.90;;;;;;5087878;28;20282;-75
2021/09/30 11:19:27;;;;;;;0.20;0.20;;;19.90;98.90;;;;;;5087840;28;20160;-74
2021/09/30 11:21:55;;;;;;;0.40;0.10;;;20.20;99.90;;;;;;5087888;28;20612;-75
2021/09/30 11:24:24;;;;;;;0.20;0.20;;;21.40;99.40;;;;;;5071452;28;20205;-74
2021/09/30 11:26:52;;;;;;;0.45;0.32;;;21.70;99.90;;;;;;5067474;28;20192;-74
2021/09/30 11:29:26;;;;;;;0.20;0.20;;;21.80;97.50;;;;;;5067869;28;20203;-74
2021/09/30 11:31:58;;;;;;;0.52;0.20;;;21.10;96.70;;;;;;5048878;28;20578;-73
2021/09/30 11:34:29;;;;;;;0.50;0.20;;;20.10;98.40;;;;;;5067353;28;20170;-74
2021/09/30 11:36:58;;;;;;;3.17;0.50;;;19.80;98.80;;;;;;5067648;28;20172;-73
2021/09/30 11:39:32;;;;;;;1.10;0.22;;;19.40;99.90;;;;;;5067769;28;20239;-74
2021/09/30 11:41:58;;;;;;;0.43;0.30;;;19.70;99.90;;;;;;5050047;28;20302;-74
2021/09/30 11:44:24;;;;;;;0.05;0.05;;;20.30;99.90;;;;;;5067366;28;20202;-73
2021/09/30 11:46:55;;;;;;;0.80;0.20;;;20.60;99.90;;;;;;5067164;28;20215;-74
2021/09/30 11:49:21;;;;;;;1.67;0.30;;;21.00;99.90;;;;;;5067436;28;20152;-74
2021/09/30 11:51:53;;;;;;;0.40;0.30;;;21.20;99.90;;;;;;5067002;28;20336;-74
2021/09/30 11:54:25;;;;;;;0.60;0.40;;;21.20;98.80;;;;;;5067196;28;20160;-74
2021/09/30 11:56:53;;;;;;;0.40;0.30;;;21.40;99.90;;;;;;5067278;28;20219;-74
2021/09/30 11:59:25;;;;;;;0.20;0.20;;;21.70;99.90;;;;;;5067343;28;20237;-73
2021/09/30 12:01:55;;;;;;;0.20;0.10;;;22.40;99.70;;;;;;5065625;28;20248;-73
2021/09/30 12:04:47;;;;;;;1.00;0.30;;;22.30;97.80;;;;;;5048877;28;20183;-74
2021/09/30 12:07:24;;;;;;;0.17;0.10;;;22.60;97.60;;;;;;5050234;28;20194;-73
2021/09/30 12:09:57;;;;;;;1.08;0.20;;;22.50;97.50;;;;;;5049967;28;20512;-73
2021/09/30 12:12:30;;;;;;;0.85;0.20;;;22.30;98.70;;;;;;5049466;28;20188;-74
2021/09/30 12:14:57;;;;;;;0.15;0.15;;;21.70;99.90;;;;;;5049279;28;20164;-73
2021/09/30 12:17:28;;;;;;;0.73;0.32;;;21.40;99.90;;;;;;5067030;28;20249;-73
2021/09/30 12:19:54;;;;;;;2.08;0.20;;;20.90;99.90;;;;;;5066759;28;20156;-75
2021/09/30 12:22:26;;;;;;;0.55;0.30;;;20.70;99.00;;;;;;5065885;28;20239;-73
2021/09/30 12:24:57;;;;;;;0.30;0.22;;;20.30;99.20;;;;;;5066867;28;20206;-72
2021/09/30 12:27:32;;;;;;;1.08;0.40;;;19.80;99.90;;;;;;5066959;28;20160;-74
2021/09/30 12:30:10;;;;;;;0.90;0.63;;;19.50;99.90;;;;;;5067009;28;20156;-75
2021/09/30 12:32:39;;;;;;;0.75;0.47;;;19.30;99.90;;;;;;5066895;28;20215;-73
2021/09/30 12:35:09;;;;;;;3.25;0.93;;;19.50;99.90;;;;;;5066777;28;20172;-73
2021/09/30 12:37:40;;;;;;;0.80;0.30;;;19.50;99.90;;;;;;5066730;28;20165;-73
2021/09/30 12:40:10;;;;;;;0.77;0.40;;;19.00;99.90;;;;;;5066836;28;20176;-73
2021/09/30 12:42:38;;;;;;;0.93;0.60;;;19.00;99.90;;;;;;5066955;28;20224;-73
2021/09/30 12:45:06;;;;;;;1.63;0.55;;;19.10;99.90;;;;;;5066753;28;20194;-75
2021/09/30 12:47:34;;;;;;;0.55;0.40;;;19.10;99.90;;;;;;5066627;28;20153;-72
2021/09/30 12:50:04;;;;;;;0.52;0.45;;;19.20;99.90;;;;;;5048634;28;20196;-73
2021/09/30 12:52:31;;;;;;;15.60;1.10;;;19.00;99.90;;;;;;5066212;28;20236;-73
2021/09/30 12:54:57;;;;;;;0.93;0.60;;;19.00;99.90;;;;;;5066396;28;20157;-72
2021/09/30 12:57:34;;;;;;;0.73;0.38;;;18.90;99.90;;;;;;5066092;28;20225;-72
2021/09/30 13:00:12;;;;;;;1.60;0.60;;;18.90;99.90;;;;;;5066581;28;20277;-75
2021/09/30 13:02:40;;;;;;;0.50;0.50;;;18.80;99.90;;;;;;5066468;28;20212;-74
2021/09/30 13:05:06;;;;;;;2.53;0.57;;;18.60;99.90;;;;;;5048476;28;20201;-73
2021/09/30 13:07:46;;;;;;;2.92;0.50;;;18.60;99.90;;;;;;5067048;28;20157;-74
2021/09/30 13:10:14;;;;;;;3.80;0.50;;;18.70;99.90;;;;;;5067096;28;20227;-73
2021/09/30 13:12:57;;;;;;;0.57;0.52;;;18.70;99.90;;;;;;5066880;28;20184;-73
2021/09/30 13:15:46;;;;;;;4.00;0.70;;;18.40;99.90;;;;;;5066300;28;20221;-72
2021/09/30 13:18:14;;;;;;;4.72;0.98;;;18.60;99.90;;;;;;5066599;28;20168;-72
2021/09/30 13:20:42;;;;;;;2.60;1.00;;;18.70;99.90;;;;;;5066780;28;20153;-72
2021/09/30 13:23:10;;;;;;;1.55;0.60;;;18.60;99.90;;;;;;5066320;28;20161;-73
2021/09/30 13:25:37;;;;;;;20.05;3.03;;;18.30;99.90;;;;;;5048305;28;20256;-73
2021/09/30 13:28:03;;;;;;;3.67;0.70;;;18.20;99.90;;;;;;5048506;28;20400;-73
2021/09/30 13:30:32;;;;;;;7.78;0.93;;;18.20;99.90;;;;;;5066168;28;20168;-73
2021/09/30 13:33:01;;;;;;;2.40;0.88;;;18.30;99.90;;;;;;5049515;28;20191;-73
2021/09/30 13:35:32;;;;;;;0.75;0.55;;;18.30;99.90;;;;;;5070149;28;20502;-73
2021/09/30 13:37:58;;;;;;;1.23;0.65;;;18.30;99.90;;;;;;5070159;28;20161;-73
2021/09/30 13:40:26;;;;;;;2.78;0.50;;;18.00;99.90;;;;;;5069445;28;20157;-73
2021/09/30 13:42:52;;;;;;;0.95;0.40;;;17.90;99.90;;;;;;5052079;28;20717;-73
2021/09/30 13:45:21;;;;;;;1.45;0.63;;;17.60;99.90;;;;;;5069900;28;20189;-75
2021/09/30 13:47:48;;;;;;;1.58;0.70;;;17.50;99.90;;;;;;5051732;28;20165;-75
2021/09/30 13:50:23;;;;;;;1.90;0.50;;;17.40;99.90;;;;;;5069573;28;20195;-74
2021/09/30 13:52:51;;;;;;;0.98;0.60;;;17.30;99.90;;;;;;5051561;28;20255;-74
2021/09/30 13:55:18;;;;;;;3.95;0.85;;;17.20;99.90;;;;;;5069576;28;20169;-74
2021/09/30 13:57:45;;;;;;;3.97;1.20;;;17.20;99.90;;;;;;5069455;28;20157;-74
2021/09/30 14:00:14;;;;;;;2.60;0.90;;;17.20;99.90;;;;;;5051311;28;20228;-75
2021/09/30 14:02:42;;;;;;;0.88;0.43;;;17.20;99.90;;;;;;5051432;28;20211;-75
2021/09/30 14:05:10;;;;;;;0.50;0.50;;;17.10;99.90;;;;;;5068991;28;20233;-75
2021/09/30 14:07:36;;;;;;;2.75;0.73;;;17.20;99.90;;;;;;5068989;28;20190;-75
2021/09/30 14:10:11;;;;;;;0.55;0.43;;;17.20;99.90;;;;;;5073407;28;20181;-74
2021/09/30 14:12:38;;;;;;;0.43;0.38;;;17.20;99.90;;;;;;5058890;28;20195;-76
2021/09/30 14:15:06;;;;;;;1.35;0.65;;;17.10;99.90;;;;;;5089215;28;20196;-76
2021/09/30 14:17:33;;;;;;;1.33;0.60;;;17.10;99.90;;;;;;5089262;28;20168;-76
2021/09/30 14:19:58;;;;;;;3.38;0.60;;;17.10;99.90;;;;;;5089009;28;20504;-77
2021/09/30 14:22:26;;;;;;;1.88;0.40;;;17.10;99.90;;;;;;5089058;28;20194;-75
2021/09/30 14:24:52;;;;;;;2.45;0.52;;;17.20;99.90;;;;;;5078453;28;20196;-74
2021/09/30 14:27:20;;;;;;;0.73;0.47;;;17.00;99.90;;;;;;5068590;28;20157;-74
2021/09/30 14:29:46;;;;;;;1.75;0.75;;;17.00;99.90;;;;;;5068648;28;20157;-75
2021/09/30 14:32:13;;;;;;;1.05;0.80;;;17.10;99.90;;;;;;5068383;28;20202;-74
2021/09/30 14:34:40;;;;;;;0.40;0.40;;;17.10;99.90;;;;;;5050195;28;20188;-75
2021/09/30 14:37:07;;;;;;;0.50;0.50;;;17.20;99.90;;;;;;5068539;28;20164;-76
2021/09/30 14:39:33;;;;;;;0.88;0.50;;;17.20;99.90;;;;;;5068815;28;20161;-77
2021/09/30 14:41:59;;;;;;;0.70;0.50;;;17.10;99.90;;;;;;5068985;28;20219;-77
2021/09/30 14:44:25;;;;;;;0.80;0.57;;;17.20;99.90;;;;;;5049427;28;20196;-77
2021/09/30 14:46:53;;;;;;;0.43;0.43;;;17.20;99.90;;;;;;5050401;28;20165;-76
2021/09/30 14:49:19;;;;;;;0.82;0.70;;;17.30;99.90;;;;;;5068615;28;20232;-76
2021/09/30 14:51:45;;;;;;;0.68;0.47;;;17.30;99.90;;;;;;5068355;28;20239;-77
2021/09/30 14:54:11;;;;;;;1.27;0.50;;;17.30;99.90;;;;;;5068233;28;20183;-77
2021/09/30 14:56:37;;;;;;;3.35;0.88;;;17.20;99.90;;;;;;5050600;28;20180;-77
2021/09/30 14:59:04;;;;;;;1.20;0.60;;;17.10;99.90;;;;;;5068290;28;20169;-77
2021/09/30 15:01:29;;;;;;;3.13;0.60;;;17.00;99.90;;;;;;5074580;28;20275;-75
2021/09/30 15:03:55;;;;;;;2.25;0.77;;;17.10;99.90;;;;;;5067545;28;20181;-75
2021/09/30 15:06:32;;;;;;;0.52;0.52;;;17.10;99.90;;;;;;5068014;28;20196;-77
2021/09/30 15:08:57;;;;;;;0.85;0.70;;;17.20;99.90;;;;;;5068300;28;20152;-76
2021/09/30 15:11:23;;;;;;;1.80;0.50;;;17.30;99.90;;;;;;5067591;28;20196;-77
2021/09/30 15:13:49;;;;;;;0.68;0.47;;;17.20;99.90;;;;;;5068229;28;20165;-75
2021/09/30 15:16:15;;;;;;;0.68;0.60;;;17.00;99.90;;;;;;5049515;28;20172;-75
2021/09/30 15:21:24;;;;;;;0.98;0.88;;;17.10;99.90;;;;;;5067591;28;20168;-76
2021/09/30 15:24:04;;;;;;;3.40;0.82;;;17.00;99.90;;;;;;5067068;28;20164;-76
2021/09/30 15:26:32;;;;;;;1.75;0.50;;;17.00;99.90;;;;;;5066534;28;20233;-76
2021/09/30 15:28:59;;;;;;;0.35;0.30;;;17.00;99.90;;;;;;5067330;28;20188;-75
2021/09/30 15:31:26;;;;;;;1.88;0.80;;;17.00;99.90;;;;;;5067515;28;20223;-76
2021/09/30 15:33:53;;;;;;;1.15;0.55;;;16.90;99.90;;;;;;5067592;28;20169;-76
2021/09/30 15:36:23;;;;;;;1.15;0.82;;;16.90;99.90;;;;;;5067622;28;20164;-76
2021/09/30 15:38:50;;;;;;;4.30;1.08;;;16.80;99.90;;;;;;5068105;28;20214;-75
2021/09/30 15:41:18;;;;;;;1.75;0.68;;;16.70;99.90;;;;;;5067932;28;20160;-76
2021/09/30 15:43:44;;;;;;;4.05;1.13;;;16.70;99.90;;;;;;5067074;28;20153;-75